Stoneyville, Illinois
Current Conditions -  °F | °C
As of 7:35 PM on Monday 24 Nov 2014 (Local Time) from KVYS Reporting Station
Light Snow Light Snow  
Wind Chill: 16°   Ceiling: 2000
Heat Index: 28°   Visibility: 10mi
Dew Point: 24°   Wind: 17mph
Humidity: 84%   Direction: 260°W
Pressure: 29.77"   Gusts: 29mph
Location:  41.4349°N, 88.8687°W
Report Text: KVYS 250135Z AUTO 26015G25KT 10SM -SN OVC020 M02/M04 A2977 RMK AO2 T10211045
Loading
Personal Weather Stations






























Interactive Weather Map New forecast layout! Learn more

10-Day Weather Forecast

Advertisements
Track Severe Weather on mobile